sensor_id;sensor_type;location;lat;lon;timestamp;temperature;humidity
12436;DHT22;6282;51.440;6.938;2023-02-26T00:01:24;1.10;99.90
12436;DHT22;6282;51.440;6.938;2023-02-26T00:03:55;1.30;99.90
12436;DHT22;6282;51.440;6.938;2023-02-26T00:06:24;1.10;99.90
12436;DHT22;6282;51.440;6.938;2023-02-26T00:08:51;0.90;99.90
12436;DHT22;6282;51.440;6.938;2023-02-26T00:11:18;0.90;99.90
12436;DHT22;6282;51.440;6.938;2023-02-26T00:13:46;1.30;99.90
12436;DHT22;6282;51.440;6.938;2023-02-26T00:16:25;1.30;99.90
12436;DHT22;6282;51.440;6.938;2023-02-26T00:18:54;1.20;99.90
12436;DHT22;6282;51.440;6.938;2023-02-26T00:21:34;1.10;99.90
12436;DHT22;6282;51.440;6.938;2023-02-26T00:24:01;0.70;99.90
12436;DHT22;6282;51.440;6.938;2023-02-26T00:26:31;0.70;99.90
12436;DHT22;6282;51.440;6.938;2023-02-26T00:28:59;1.00;99.90
12436;DHT22;6282;51.440;6.938;2023-02-26T00:31:27;1.00;99.90
12436;DHT22;6282;51.440;6.938;2023-02-26T00:33:56;0.80;99.90
12436;DHT22;6282;51.440;6.938;2023-02-26T00:36:27;1.00;99.90
12436;DHT22;6282;51.440;6.938;2023-02-26T00:39:03;0.90;99.90
12436;DHT22;6282;51.440;6.938;2023-02-26T00:41:33;0.90;99.90
12436;DHT22;6282;51.440;6.938;2023-02-26T00:44:01;0.90;99.90
12436;DHT22;6282;51.440;6.938;2023-02-26T00:46:35;1.10;99.90
12436;DHT22;6282;51.440;6.938;2023-02-26T00:49:30;1.30;99.90
12436;DHT22;6282;51.440;6.938;2023-02-26T00:52:02;1.30;99.90
12436;DHT22;6282;51.440;6.938;2023-02-26T00:54:31;1.30;99.90
12436;DHT22;6282;51.440;6.938;2023-02-26T00:56:58;1.20;99.90
12436;DHT22;6282;51.440;6.938;2023-02-26T00:59:25;1.40;99.90
12436;DHT22;6282;51.440;6.938;2023-02-26T01:01:52;1.30;99.90
12436;DHT22;6282;51.440;6.938;2023-02-26T01:04:21;1.30;99.90
12436;DHT22;6282;51.440;6.938;2023-02-26T01:06:53;1.30;99.90
12436;DHT22;6282;51.440;6.938;2023-02-26T01:09:24;1.30;99.90
12436;DHT22;6282;51.440;6.938;2023-02-26T01:11:52;1.00;99.90
12436;DHT22;6282;51.440;6.938;2023-02-26T01:14:20;1.00;99.90
12436;DHT22;6282;51.440;6.938;2023-02-26T01:16:52;1.20;99.90
12436;DHT22;6282;51.440;6.938;2023-02-26T01:19:41;1.50;99.90
12436;DHT22;6282;51.440;6.938;2023-02-26T01:22:15;1.00;99.90
12436;DHT22;6282;51.440;6.938;2023-02-26T01:24:45;1.10;99.90
12436;DHT22;6282;51.440;6.938;2023-02-26T01:27:14;1.50;99.90
12436;DHT22;6282;51.440;6.938;2023-02-26T01:29:53;1.30;99.90
12436;DHT22;6282;51.440;6.938;2023-02-26T01:32:45;1.00;99.90
12436;DHT22;6282;51.440;6.938;2023-02-26T01:35:25;1.30;99.90
12436;DHT22;6282;51.440;6.938;2023-02-26T01:38:03;1.30;99.90
12436;DHT22;6282;51.440;6.938;2023-02-26T01:43:15;1.10;99.90
12436;DHT22;6282;51.440;6.938;2023-02-26T01:45:53;0.90;99.90
12436;DHT22;6282;51.440;6.938;2023-02-26T01:48:30;1.00;99.90
12436;DHT22;6282;51.440;6.938;2023-02-26T01:50:59;1.00;99.90
12436;DHT22;6282;51.440;6.938;2023-02-26T01:53:28;1.20;99.90
12436;DHT22;6282;51.440;6.938;2023-02-26T01:55:56;1.00;99.90
12436;DHT22;6282;51.440;6.938;2023-02-26T01:58:25;1.10;99.90
12436;DHT22;6282;51.440;6.938;2023-02-26T02:00:53;1.00;99.90
12436;DHT22;6282;51.440;6.938;2023-02-26T02:03:21;0.90;99.90
12436;DHT22;6282;51.440;6.938;2023-02-26T02:05:51;1.10;99.90
12436;DHT22;6282;51.440;6.938;2023-02-26T02:08:20;1.10;99.90
12436;DHT22;6282;51.440;6.938;2023-02-26T02:10:50;1.00;99.90
12436;DHT22;6282;51.440;6.938;2023-02-26T02:13:30;0.80;99.90
12436;DHT22;6282;51.440;6.938;2023-02-26T02:16:07;0.90;99.90
12436;DHT22;6282;51.440;6.938;2023-02-26T02:18:42;0.80;99.90
12436;DHT22;6282;51.440;6.938;2023-02-26T02:24:16;0.80;99.90
12436;DHT22;6282;51.440;6.938;2023-02-26T02:27:00;0.60;99.90
12436;DHT22;6282;51.440;6.938;2023-02-26T02:30:00;0.70;99.90
12436;DHT22;6282;51.440;6.938;2023-02-26T02:32:34;0.90;99.90
12436;DHT22;6282;51.440;6.938;2023-02-26T02:35:11;1.00;99.90
12436;DHT22;6282;51.440;6.938;2023-02-26T02:37:42;0.90;99.90
12436;DHT22;6282;51.440;6.938;2023-02-26T02:40:14;0.80;99.90
12436;DHT22;6282;51.440;6.938;2023-02-26T02:42:45;1.00;99.90
12436;DHT22;6282;51.440;6.938;2023-02-26T02:45:17;0.80;99.90
12436;DHT22;6282;51.440;6.938;2023-02-26T02:47:49;0.60;99.90
12436;DHT22;6282;51.440;6.938;2023-02-26T02:50:21;0.50;99.90
12436;DHT22;6282;51.440;6.938;2023-02-26T02:52:56;0.60;99.90
12436;DHT22;6282;51.440;6.938;2023-02-26T02:55:26;0.80;99.90
12436;DHT22;6282;51.440;6.938;2023-02-26T02:57:57;0.80;99.90
12436;DHT22;6282;51.440;6.938;2023-02-26T03:00:28;0.70;99.90
12436;DHT22;6282;51.440;6.938;2023-02-26T03:03:02;0.80;99.90
12436;DHT22;6282;51.440;6.938;2023-02-26T03:05:32;0.40;99.90
12436;DHT22;6282;51.440;6.938;2023-02-26T03:08:02;0.40;99.90
12436;DHT22;6282;51.440;6.938;2023-02-26T03:10:31;0.60;99.90
12436;DHT22;6282;51.440;6.938;2023-02-26T03:12:58;0.60;99.90
12436;DHT22;6282;51.440;6.938;2023-02-26T03:15:31;0.80;99.90
12436;DHT22;6282;51.440;6.938;2023-02-26T03:18:08;0.60;99.90
12436;DHT22;6282;51.440;6.938;2023-02-26T03:20:44;0.60;99.90
12436;DHT22;6282;51.440;6.938;2023-02-26T03:23:18;0.30;99.90
12436;DHT22;6282;51.440;6.938;2023-02-26T03:25:50;0.40;99.90
12436;DHT22;6282;51.440;6.938;2023-02-26T03:28:24;0.10;99.90
12436;DHT22;6282;51.440;6.938;2023-02-26T03:30:56;0.10;99.90
12436;DHT22;6282;51.440;6.938;2023-02-26T03:33:30;0.40;99.90
12436;DHT22;6282;51.440;6.938;2023-02-26T03:36:03;0.40;99.90
12436;DHT22;6282;51.440;6.938;2023-02-26T03:38:36;0.50;99.90
12436;DHT22;6282;51.440;6.938;2023-02-26T03:41:05;0.40;99.90
12436;DHT22;6282;51.440;6.938;2023-02-26T03:43:37;0.30;99.90
12436;DHT22;6282;51.440;6.938;2023-02-26T03:46:10;0.30;99.90
12436;DHT22;6282;51.440;6.938;2023-02-26T03:48:39;0.30;99.90
12436;DHT22;6282;51.440;6.938;2023-02-26T03:51:09;0.10;99.90
12436;DHT22;6282;51.440;6.938;2023-02-26T03:53:39;0.30;99.90
12436;DHT22;6282;51.440;6.938;2023-02-26T03:56:14;0.40;99.90
12436;DHT22;6282;51.440;6.938;2023-02-26T03:58:42;0.20;99.90
12436;DHT22;6282;51.440;6.938;2023-02-26T04:01:12;0.30;99.90
12436;DHT22;6282;51.440;6.938;2023-02-26T04:03:48;0.80;99.90
12436;DHT22;6282;51.440;6.938;2023-02-26T04:06:16;0.10;99.90
12436;DHT22;6282;51.440;6.938;2023-02-26T04:08:43;0.20;99.90
12436;DHT22;6282;51.440;6.938;2023-02-26T04:11:11;0.10;99.90
12436;DHT22;6282;51.440;6.938;2023-02-26T04:13:39;0.00;99.90
12436;DHT22;6282;51.440;6.938;2023-02-26T04:16:06;0.00;99.90
12436;DHT22;6282;51.440;6.938;2023-02-26T04:18:33;-0.20;99.90
12436;DHT22;6282;51.440;6.938;2023-02-26T04:21:01;0.30;99.90
12436;DHT22;6282;51.440;6.938;2023-02-26T04:23:28;0.30;99.90
12436;DHT22;6282;51.440;6.938;2023-02-26T04:25:55;0.30;99.90
12436;DHT22;6282;51.440;6.938;2023-02-26T04:28:22;0.20;99.90
12436;DHT22;6282;51.440;6.938;2023-02-26T04:30:48;0.50;99.90
12436;DHT22;6282;51.440;6.938;2023-02-26T04:33:15;0.00;99.90
12436;DHT22;6282;51.440;6.938;2023-02-26T04:35:42;0.10;99.90
12436;DHT22;6282;51.440;6.938;2023-02-26T04:38:10;-0.20;99.90
12436;DHT22;6282;51.440;6.938;2023-02-26T04:40:37;0.00;99.90
12436;DHT22;6282;51.440;6.938;2023-02-26T04:43:04;-0.20;99.90
12436;DHT22;6282;51.440;6.938;2023-02-26T04:45:31;-0.20;99.90
12436;DHT22;6282;51.440;6.938;2023-02-26T04:47:58;-0.10;99.90
12436;DHT22;6282;51.440;6.938;2023-02-26T04:50:24;-0.10;99.90
12436;DHT22;6282;51.440;6.938;2023-02-26T04:52:51;-0.40;99.90
12436;DHT22;6282;51.440;6.938;2023-02-26T04:55:19;0.20;99.90
12436;DHT22;6282;51.440;6.938;2023-02-26T04:57:46;0.00;99.90
12436;DHT22;6282;51.440;6.938;2023-02-26T05:00:14;-0.20;99.90
12436;DHT22;6282;51.440;6.938;2023-02-26T05:02:42;-0.30;99.90
12436;DHT22;6282;51.440;6.938;2023-02-26T05:05:09;0.00;99.90
12436;DHT22;6282;51.440;6.938;2023-02-26T05:07:35;-0.20;99.90
12436;DHT22;6282;51.440;6.938;2023-02-26T05:10:03;-0.20;99.90
12436;DHT22;6282;51.440;6.938;2023-02-26T05:12:31;-0.20;99.90
12436;DHT22;6282;51.440;6.938;2023-02-26T05:14:59;-0.20;99.90
12436;DHT22;6282;51.440;6.938;2023-02-26T05:17:25;0.30;99.90
12436;DHT22;6282;51.440;6.938;2023-02-26T05:19:52;0.20;99.90
12436;DHT22;6282;51.440;6.938;2023-02-26T05:22:19;0.10;99.90
12436;DHT22;6282;51.440;6.938;2023-02-26T05:24:46;0.10;99.90
12436;DHT22;6282;51.440;6.938;2023-02-26T05:27:13;0.00;99.90
12436;DHT22;6282;51.440;6.938;2023-02-26T05:29:41;-0.30;99.90
12436;DHT22;6282;51.440;6.938;2023-02-26T05:32:09;-0.30;99.90
12436;DHT22;6282;51.440;6.938;2023-02-26T05:34:36;0.10;99.90
12436;DHT22;6282;51.440;6.938;2023-02-26T05:37:03;-0.10;99.90
12436;DHT22;6282;51.440;6.938;2023-02-26T05:39:30;-0.50;99.90
12436;DHT22;6282;51.440;6.938;2023-02-26T05:41:57;-0.20;99.90
12436;DHT22;6282;51.440;6.938;2023-02-26T05:44:24;-0.50;99.90
12436;DHT22;6282;51.440;6.938;2023-02-26T05:46:53;-0.40;99.90
12436;DHT22;6282;51.440;6.938;2023-02-26T05:49:20;-0.30;99.90
12436;DHT22;6282;51.440;6.938;2023-02-26T05:51:47;-0.20;99.90
12436;DHT22;6282;51.440;6.938;2023-02-26T05:54:13;-0.40;99.90
12436;DHT22;6282;51.440;6.938;2023-02-26T05:56:40;-0.40;99.90
12436;DHT22;6282;51.440;6.938;2023-02-26T05:59:07;-0.40;99.90
12436;DHT22;6282;51.440;6.938;2023-02-26T06:01:34;-0.20;99.90
12436;DHT22;6282;51.440;6.938;2023-02-26T06:04:03;-0.30;99.90
12436;DHT22;6282;51.440;6.938;2023-02-26T06:06:30;-0.50;99.90
12436;DHT22;6282;51.440;6.938;2023-02-26T06:08:57;-0.50;99.90
12436;DHT22;6282;51.440;6.938;2023-02-26T06:11:25;-0.60;99.90
12436;DHT22;6282;51.440;6.938;2023-02-26T06:13:52;-0.20;99.90
12436;DHT22;6282;51.440;6.938;2023-02-26T06:16:19;-0.20;99.90
12436;DHT22;6282;51.440;6.938;2023-02-26T06:18:46;-0.40;99.90
12436;DHT22;6282;51.440;6.938;2023-02-26T06:21:16;-0.50;99.90
12436;DHT22;6282;51.440;6.938;2023-02-26T06:23:43;-0.30;99.90
12436;DHT22;6282;51.440;6.938;2023-02-26T06:26:10;-0.60;99.90
12436;DHT22;6282;51.440;6.938;2023-02-26T06:28:37;-0.10;99.90
12436;DHT22;6282;51.440;6.938;2023-02-26T06:31:04;-0.20;99.90
12436;DHT22;6282;51.440;6.938;2023-02-26T06:33:30;-0.40;99.90
12436;DHT22;6282;51.440;6.938;2023-02-26T06:35:57;-0.60;99.90
12436;DHT22;6282;51.440;6.938;2023-02-26T06:38:26;-0.20;99.90
12436;DHT22;6282;51.440;6.938;2023-02-26T06:40:53;-0.20;99.90
12436;DHT22;6282;51.440;6.938;2023-02-26T06:43:21;-0.30;99.90
12436;DHT22;6282;51.440;6.938;2023-02-26T06:45:48;-0.70;99.90
12436;DHT22;6282;51.440;6.938;2023-02-26T06:48:14;-0.10;99.90
12436;DHT22;6282;51.440;6.938;2023-02-26T06:50:41;-0.40;99.90
12436;DHT22;6282;51.440;6.938;2023-02-26T06:53:08;-0.50;99.90
12436;DHT22;6282;51.440;6.938;2023-02-26T06:55:42;-0.40;99.90
12436;DHT22;6282;51.440;6.938;2023-02-26T06:58:09;-0.40;99.90
12436;DHT22;6282;51.440;6.938;2023-02-26T07:00:36;-0.20;99.90
12436;DHT22;6282;51.440;6.938;2023-02-26T07:03:03;-0.30;99.90
12436;DHT22;6282;51.440;6.938;2023-02-26T07:05:30;0.20;99.90
12436;DHT22;6282;51.440;6.938;2023-02-26T07:07:57;0.00;99.90
12436;DHT22;6282;51.440;6.938;2023-02-26T07:10:24;-0.30;99.90
12436;DHT22;6282;51.440;6.938;2023-02-26T07:12:52;-0.10;99.90
12436;DHT22;6282;51.440;6.938;2023-02-26T07:15:19;0.00;99.90
12436;DHT22;6282;51.440;6.938;2023-02-26T07:17:46;0.20;99.90
12436;DHT22;6282;51.440;6.938;2023-02-26T07:20:12;0.30;99.90
12436;DHT22;6282;51.440;6.938;2023-02-26T07:22:39;0.00;99.90
12436;DHT22;6282;51.440;6.938;2023-02-26T07:25:07;0.00;99.90
12436;DHT22;6282;51.440;6.938;2023-02-26T07:27:34;0.00;99.90
12436;DHT22;6282;51.440;6.938;2023-02-26T07:30:05;0.10;99.90
12436;DHT22;6282;51.440;6.938;2023-02-26T07:32:32;0.20;99.90
12436;DHT22;6282;51.440;6.938;2023-02-26T07:34:59;0.10;99.90
12436;DHT22;6282;51.440;6.938;2023-02-26T07:37:26;0.20;99.90
12436;DHT22;6282;51.440;6.938;2023-02-26T07:39:54;0.30;99.90
12436;DHT22;6282;51.440;6.938;2023-02-26T07:42:21;0.20;99.90
12436;DHT22;6282;51.440;6.938;2023-02-26T07:44:47;0.10;99.90
12436;DHT22;6282;51.440;6.938;2023-02-26T07:47:16;0.40;99.90
12436;DHT22;6282;51.440;6.938;2023-02-26T07:49:43;0.40;99.90
12436;DHT22;6282;51.440;6.938;2023-02-26T07:52:10;0.60;99.90
12436;DHT22;6282;51.440;6.938;2023-02-26T07:54:37;0.70;99.90
12436;DHT22;6282;51.440;6.938;2023-02-26T07:57:04;0.60;99.90
12436;DHT22;6282;51.440;6.938;2023-02-26T07:59:31;0.50;99.90
12436;DHT22;6282;51.440;6.938;2023-02-26T08:01:57;0.60;99.90
12436;DHT22;6282;51.440;6.938;2023-02-26T08:04:26;0.70;99.90
12436;DHT22;6282;51.440;6.938;2023-02-26T08:06:52;1.40;99.90
12436;DHT22;6282;51.440;6.938;2023-02-26T08:09:21;3.40;99.90
12436;DHT22;6282;51.440;6.938;2023-02-26T08:11:48;5.60;99.90
12436;DHT22;6282;51.440;6.938;2023-02-26T08:14:15;6.50;99.90
12436;DHT22;6282;51.440;6.938;2023-02-26T08:16:42;6.70;99.90
12436;DHT22;6282;51.440;6.938;2023-02-26T08:19:09;6.30;99.90
12436;DHT22;6282;51.440;6.938;2023-02-26T08:21:37;3.40;99.90
12436;DHT22;6282;51.440;6.938;2023-02-26T08:24:04;4.80;99.90
12436;DHT22;6282;51.440;6.938;2023-02-26T08:26:34;6.90;99.90
12436;DHT22;6282;51.440;6.938;2023-02-26T08:29:02;6.20;99.90
12436;DHT22;6282;51.440;6.938;2023-02-26T08:31:29;7.20;99.90
12436;DHT22;6282;51.440;6.938;2023-02-26T08:33:58;7.80;99.90
12436;DHT22;6282;51.440;6.938;2023-02-26T08:36:25;8.60;99.90
12436;DHT22;6282;51.440;6.938;2023-02-26T08:38:53;8.50;99.90
12436;DHT22;6282;51.440;6.938;2023-02-26T08:41:21;6.80;99.90
12436;DHT22;6282;51.440;6.938;2023-02-26T08:43:48;7.00;99.90
12436;DHT22;6282;51.440;6.938;2023-02-26T08:46:15;8.00;99.90
12436;DHT22;6282;51.440;6.938;2023-02-26T08:48:42;7.20;99.90
12436;DHT22;6282;51.440;6.938;2023-02-26T08:51:08;7.00;99.90
12436;DHT22;6282;51.440;6.938;2023-02-26T08:53:35;7.50;99.90
12436;DHT22;6282;51.440;6.938;2023-02-26T08:56:06;7.40;99.90
12436;DHT22;6282;51.440;6.938;2023-02-26T08:58:32;6.90;99.90
12436;DHT22;6282;51.440;6.938;2023-02-26T09:00:59;6.40;99.90
12436;DHT22;6282;51.440;6.938;2023-02-26T09:03:26;7.70;99.90
12436;DHT22;6282;51.440;6.938;2023-02-26T09:05:53;7.60;99.90
12436;DHT22;6282;51.440;6.938;2023-02-26T09:08:20;8.10;99.90
12436;DHT22;6282;51.440;6.938;2023-02-26T09:10:47;6.00;99.90
12436;DHT22;6282;51.440;6.938;2023-02-26T09:13:15;6.80;99.90
12436;DHT22;6282;51.440;6.938;2023-02-26T09:15:42;5.80;99.90
12436;DHT22;6282;51.440;6.938;2023-02-26T09:18:09;5.80;99.90
12436;DHT22;6282;51.440;6.938;2023-02-26T09:20:40;5.50;99.90
12436;DHT22;6282;51.440;6.938;2023-02-26T09:23:07;4.20;99.90
12436;DHT22;6282;51.440;6.938;2023-02-26T09:25:34;3.80;99.90
12436;DHT22;6282;51.440;6.938;2023-02-26T09:28:01;3.30;99.90
12436;DHT22;6282;51.440;6.938;2023-02-26T09:30:30;3.80;99.90
12436;DHT22;6282;51.440;6.938;2023-02-26T09:32:56;3.40;99.90
12436;DHT22;6282;51.440;6.938;2023-02-26T09:35:23;3.50;99.90
12436;DHT22;6282;51.440;6.938;2023-02-26T09:37:50;4.10;99.90
12436;DHT22;6282;51.440;6.938;2023-02-26T09:40:22;3.70;99.90
12436;DHT22;6282;51.440;6.938;2023-02-26T09:43:04;3.50;99.90
12436;DHT22;6282;51.440;6.938;2023-02-26T09:45:36;4.20;99.90
12436;DHT22;6282;51.440;6.938;2023-02-26T09:48:05;3.90;99.90
12436;DHT22;6282;51.440;6.938;2023-02-26T09:50:39;3.70;99.90
12436;DHT22;6282;51.440;6.938;2023-02-26T09:53:13;3.70;99.90
12436;DHT22;6282;51.440;6.938;2023-02-26T09:55:44;3.40;99.90
12436;DHT22;6282;51.440;6.938;2023-02-26T09:58:17;3.30;99.90
12436;DHT22;6282;51.440;6.938;2023-02-26T10:00:52;3.60;99.90
12436;DHT22;6282;51.440;6.938;2023-02-26T10:03:26;3.40;99.90
12436;DHT22;6282;51.440;6.938;2023-02-26T10:06:12;3.30;99.90
12436;DHT22;6282;51.440;6.938;2023-02-26T10:08:47;3.50;99.90
12436;DHT22;6282;51.440;6.938;2023-02-26T10:11:25;3.30;99.90
12436;DHT22;6282;51.440;6.938;2023-02-26T10:13:59;3.10;99.90
12436;DHT22;6282;51.440;6.938;2023-02-26T10:16:32;3.20;99.90
12436;DHT22;6282;51.440;6.938;2023-02-26T10:19:03;3.00;99.90
12436;DHT22;6282;51.440;6.938;2023-02-26T10:21:35;2.80;99.90
12436;DHT22;6282;51.440;6.938;2023-02-26T10:24:09;3.00;99.90
12436;DHT22;6282;51.440;6.938;2023-02-26T10:26:39;3.30;99.90
12436;DHT22;6282;51.440;6.938;2023-02-26T10:29:15;3.30;99.90
12436;DHT22;6282;51.440;6.938;2023-02-26T10:31:56;3.60;99.90
12436;DHT22;6282;51.440;6.938;2023-02-26T10:34:28;3.70;99.90
12436;DHT22;6282;51.440;6.938;2023-02-26T10:37:02;3.60;99.90
12436;DHT22;6282;51.440;6.938;2023-02-26T10:39:32;3.60;99.90
12436;DHT22;6282;51.440;6.938;2023-02-26T10:42:02;3.80;99.90
12436;DHT22;6282;51.440;6.938;2023-02-26T10:44:35;3.60;99.90
12436;DHT22;6282;51.440;6.938;2023-02-26T10:47:09;3.70;99.90
12436;DHT22;6282;51.440;6.938;2023-02-26T10:49:49;3.70;99.90
12436;DHT22;6282;51.440;6.938;2023-02-26T10:52:19;4.00;99.90
12436;DHT22;6282;51.440;6.938;2023-02-26T10:55:04;3.60;99.90
12436;DHT22;6282;51.440;6.938;2023-02-26T10:57:34;3.90;99.90
12436;DHT22;6282;51.440;6.938;2023-02-26T11:00:04;4.30;99.90
12436;DHT22;6282;51.440;6.938;2023-02-26T11:02:36;3.70;99.90
12436;DHT22;6282;51.440;6.938;2023-02-26T11:05:12;3.90;99.90
12436;DHT22;6282;51.440;6.938;2023-02-26T11:07:40;3.80;99.90
12436;DHT22;6282;51.440;6.938;2023-02-26T11:10:14;3.90;99.90
12436;DHT22;6282;51.440;6.938;2023-02-26T11:12:42;4.50;99.90
12436;DHT22;6282;51.440;6.938;2023-02-26T11:15:13;4.30;99.90
12436;DHT22;6282;51.440;6.938;2023-02-26T11:17:41;4.10;99.90
12436;DHT22;6282;51.440;6.938;2023-02-26T11:20:19;3.90;99.90
12436;DHT22;6282;51.440;6.938;2023-02-26T11:22:52;4.00;99.90
12436;DHT22;6282;51.440;6.938;2023-02-26T11:25:23;4.20;99.90
12436;DHT22;6282;51.440;6.938;2023-02-26T11:27:57;4.20;99.90
12436;DHT22;6282;51.440;6.938;2023-02-26T11:30:26;4.30;99.90
12436;DHT22;6282;51.440;6.938;2023-02-26T11:32:58;4.60;99.90
12436;DHT22;6282;51.440;6.938;2023-02-26T11:35:29;4.50;99.90
12436;DHT22;6282;51.440;6.938;2023-02-26T11:37:58;4.50;99.90
12436;DHT22;6282;51.440;6.938;2023-02-26T11:40:33;4.60;99.90
12436;DHT22;6282;51.440;6.938;2023-02-26T11:43:04;4.30;99.90
12436;DHT22;6282;51.440;6.938;2023-02-26T11:45:34;3.90;99.90
12436;DHT22;6282;51.440;6.938;2023-02-26T11:48:05;4.00;99.90
12436;DHT22;6282;51.440;6.938;2023-02-26T11:50:39;4.00;99.90
12436;DHT22;6282;51.440;6.938;2023-02-26T11:53:15;4.40;99.90
12436;DHT22;6282;51.440;6.938;2023-02-26T11:55:45;4.50;99.90
12436;DHT22;6282;51.440;6.938;2023-02-26T11:58:18;4.50;99.90
12436;DHT22;6282;51.440;6.938;2023-02-26T12:00:46;4.60;99.90
12436;DHT22;6282;51.440;6.938;2023-02-26T12:03:18;4.40;99.90
12436;DHT22;6282;51.440;6.938;2023-02-26T12:05:45;4.20;99.90
12436;DHT22;6282;51.440;6.938;2023-02-26T12:08:17;4.30;99.90
12436;DHT22;6282;51.440;6.938;2023-02-26T12:10:52;4.30;99.90
12436;DHT22;6282;51.440;6.938;2023-02-26T12:13:26;4.20;99.90
12436;DHT22;6282;51.440;6.938;2023-02-26T12:15:59;4.20;99.90
12436;DHT22;6282;51.440;6.938;2023-02-26T12:18:46;4.70;99.90
12436;DHT22;6282;51.440;6.938;2023-02-26T12:21:30;4.90;99.90
12436;DHT22;6282;51.440;6.938;2023-02-26T12:24:21;4.80;99.90
12436;DHT22;6282;51.440;6.938;2023-02-26T12:26:53;4.60;99.90
12436;DHT22;6282;51.440;6.938;2023-02-26T12:29:43;4.70;99.90
12436;DHT22;6282;51.440;6.938;2023-02-26T12:32:33;4.80;99.90
12436;DHT22;6282;51.440;6.938;2023-02-26T12:35:22;4.30;99.90
12436;DHT22;6282;51.440;6.938;2023-02-26T12:38:00;4.10;99.90
12436;DHT22;6282;51.440;6.938;2023-02-26T12:40:47;4.20;99.90
12436;DHT22;6282;51.440;6.938;2023-02-26T12:43:22;4.70;99.90
12436;DHT22;6282;51.440;6.938;2023-02-26T12:46:05;5.10;99.90
12436;DHT22;6282;51.440;6.938;2023-02-26T12:48:47;4.90;99.90
12436;DHT22;6282;51.440;6.938;2023-02-26T12:51:27;5.40;99.90
12436;DHT22;6282;51.440;6.938;2023-02-26T12:54:11;5.30;99.90
12436;DHT22;6282;51.440;6.938;2023-02-26T12:57:16;5.00;99.90
12436;DHT22;6282;51.440;6.938;2023-02-26T13:00:02;5.30;99.90
12436;DHT22;6282;51.440;6.938;2023-02-26T13:06:01;4.40;99.90
12436;DHT22;6282;51.440;6.938;2023-02-26T13:08:37;4.50;99.90
12436;DHT22;6282;51.440;6.938;2023-02-26T13:11:18;4.70;99.90
12436;DHT22;6282;51.440;6.938;2023-02-26T13:13:59;4.60;99.90
12436;DHT22;6282;51.440;6.938;2023-02-26T13:16:37;4.50;99.90
12436;DHT22;6282;51.440;6.938;2023-02-26T13:19:17;4.80;99.90
12436;DHT22;6282;51.440;6.938;2023-02-26T13:21:50;4.80;99.90
12436;DHT22;6282;51.440;6.938;2023-02-26T13:24:21;4.70;99.90
12436;DHT22;6282;51.440;6.938;2023-02-26T13:26:50;5.10;99.90
12436;DHT22;6282;51.440;6.938;2023-02-26T13:29:21;5.10;99.90
12436;DHT22;6282;51.440;6.938;2023-02-26T13:31:54;5.50;99.90
12436;DHT22;6282;51.440;6.938;2023-02-26T13:34:28;5.30;99.90
12436;DHT22;6282;51.440;6.938;2023-02-26T13:36:57;5.10;99.90
12436;DHT22;6282;51.440;6.938;2023-02-26T13:39:46;4.70;99.90
12436;DHT22;6282;51.440;6.938;2023-02-26T13:42:24;4.70;99.90
12436;DHT22;6282;51.440;6.938;2023-02-26T13:45:03;4.70;99.90
12436;DHT22;6282;51.440;6.938;2023-02-26T13:47:47;4.70;99.90
12436;DHT22;6282;51.440;6.938;2023-02-26T13:50:34;4.80;99.90
12436;DHT22;6282;51.440;6.938;2023-02-26T13:53:32;4.50;99.90
12436;DHT22;6282;51.440;6.938;2023-02-26T13:56:05;4.80;99.90
12436;DHT22;6282;51.440;6.938;2023-02-26T13:58:38;5.60;99.90
12436;DHT22;6282;51.440;6.938;2023-02-26T14:01:13;4.70;99.90
12436;DHT22;6282;51.440;6.938;2023-02-26T14:03:46;4.70;99.90
12436;DHT22;6282;51.440;6.938;2023-02-26T14:06:35;4.90;99.90
12436;DHT22;6282;51.440;6.938;2023-02-26T14:09:04;5.50;99.90
12436;DHT22;6282;51.440;6.938;2023-02-26T14:12:02;4.90;99.90
12436;DHT22;6282;51.440;6.938;2023-02-26T14:14:35;4.80;99.90
12436;DHT22;6282;51.440;6.938;2023-02-26T14:17:27;4.80;99.90
12436;DHT22;6282;51.440;6.938;2023-02-26T14:20:20;4.90;99.90
12436;DHT22;6282;51.440;6.938;2023-02-26T14:22:51;4.90;99.90
12436;DHT22;6282;51.440;6.938;2023-02-26T14:25:24;5.40;99.90
12436;DHT22;6282;51.440;6.938;2023-02-26T14:28:32;4.80;99.90
12436;DHT22;6282;51.440;6.938;2023-02-26T14:31:08;4.70;99.90
12436;DHT22;6282;51.440;6.938;2023-02-26T14:33:41;4.70;99.90
12436;DHT22;6282;51.440;6.938;2023-02-26T14:36:16;5.30;99.90
12436;DHT22;6282;51.440;6.938;2023-02-26T14:38:46;4.70;99.90
12436;DHT22;6282;51.440;6.938;2023-02-26T14:41:23;4.60;99.90
12436;DHT22;6282;51.440;6.938;2023-02-26T14:43:58;4.60;99.90
12436;DHT22;6282;51.440;6.938;2023-02-26T14:46:26;4.70;99.90
12436;DHT22;6282;51.440;6.938;2023-02-26T14:48:54;5.10;99.90
12436;DHT22;6282;51.440;6.938;2023-02-26T14:51:26;4.80;99.90
12436;DHT22;6282;51.440;6.938;2023-02-26T14:54:32;5.70;99.90
12436;DHT22;6282;51.440;6.938;2023-02-26T14:57:07;5.70;99.90
12436;DHT22;6282;51.440;6.938;2023-02-26T14:59:59;4.80;99.90
12436;DHT22;6282;51.440;6.938;2023-02-26T15:02:46;4.70;99.90
12436;DHT22;6282;51.440;6.938;2023-02-26T15:05:24;4.70;99.90
12436;DHT22;6282;51.440;6.938;2023-02-26T15:11:07;4.60;99.90
12436;DHT22;6282;51.440;6.938;2023-02-26T15:13:53;4.70;99.90
12436;DHT22;6282;51.440;6.938;2023-02-26T15:16:35;4.60;99.90
12436;DHT22;6282;51.440;6.938;2023-02-26T15:19:26;4.60;99.90
12436;DHT22;6282;51.440;6.938;2023-02-26T15:22:07;4.50;99.90
12436;DHT22;6282;51.440;6.938;2023-02-26T15:24:37;4.40;99.90
12436;DHT22;6282;51.440;6.938;2023-02-26T15:27:07;4.50;99.90
12436;DHT22;6282;51.440;6.938;2023-02-26T15:29:40;4.50;99.90
12436;DHT22;6282;51.440;6.938;2023-02-26T15:32:16;4.40;99.90
12436;DHT22;6282;51.440;6.938;2023-02-26T15:34:53;4.50;99.90
12436;DHT22;6282;51.440;6.938;2023-02-26T15:37:22;4.50;99.90
12436;DHT22;6282;51.440;6.938;2023-02-26T15:39:51;4.50;99.90
12436;DHT22;6282;51.440;6.938;2023-02-26T15:42:19;4.50;99.90
12436;DHT22;6282;51.440;6.938;2023-02-26T15:44:47;4.50;99.90
12436;DHT22;6282;51.440;6.938;2023-02-26T15:47:17;4.50;99.90
12436;DHT22;6282;51.440;6.938;2023-02-26T15:49:46;4.40;99.90
12436;DHT22;6282;51.440;6.938;2023-02-26T15:52:16;4.60;99.90
12436;DHT22;6282;51.440;6.938;2023-02-26T15:54:46;4.50;99.90
12436;DHT22;6282;51.440;6.938;2023-02-26T15:57:14;4.50;99.90
12436;DHT22;6282;51.440;6.938;2023-02-26T15:59:43;4.40;99.90
12436;DHT22;6282;51.440;6.938;2023-02-26T16:02:12;4.20;99.90
12436;DHT22;6282;51.440;6.938;2023-02-26T16:04:41;4.20;99.90
12436;DHT22;6282;51.440;6.938;2023-02-26T16:07:09;4.20;99.90
12436;DHT22;6282;51.440;6.938;2023-02-26T16:09:39;4.20;99.90
12436;DHT22;6282;51.440;6.938;2023-02-26T16:12:08;4.20;99.90
12436;DHT22;6282;51.440;6.938;2023-02-26T16:14:38;4.10;99.90
12436;DHT22;6282;51.440;6.938;2023-02-26T16:17:07;4.10;99.90
12436;DHT22;6282;51.440;6.938;2023-02-26T16:19:38;4.00;99.90
12436;DHT22;6282;51.440;6.938;2023-02-26T16:22:18;4.10;99.90
12436;DHT22;6282;51.440;6.938;2023-02-26T16:24:49;4.20;99.90
12436;DHT22;6282;51.440;6.938;2023-02-26T16:27:18;4.00;99.90
12436;DHT22;6282;51.440;6.938;2023-02-26T16:29:49;3.90;99.90
12436;DHT22;6282;51.440;6.938;2023-02-26T16:32:16;3.90;99.90
12436;DHT22;6282;51.440;6.938;2023-02-26T16:34:50;3.70;99.90
12436;DHT22;6282;51.440;6.938;2023-02-26T16:37:32;3.80;99.90
12436;DHT22;6282;51.440;6.938;2023-02-26T16:40:11;3.80;99.90
12436;DHT22;6282;51.440;6.938;2023-02-26T16:42:52;3.70;99.90